sensor_id;sensor_type;location;lat;lon;timestamp;temperature;humidity
2387;DHT22;49473;50.772;8.768;2022-09-13T00:01:44;12.30;99.90
2387;DHT22;49473;50.772;8.768;2022-09-13T00:04:11;12.20;99.90
2387;DHT22;49473;50.772;8.768;2022-09-13T00:06:37;12.20;99.90
2387;DHT22;49473;50.772;8.768;2022-09-13T00:09:05;12.20;99.90
2387;DHT22;49473;50.772;8.768;2022-09-13T00:11:32;12.20;99.90
2387;DHT22;49473;50.772;8.768;2022-09-13T00:13:59;12.30;99.90
2387;DHT22;49473;50.772;8.768;2022-09-13T00:16:28;12.20;99.90
2387;DHT22;49473;50.772;8.768;2022-09-13T00:18:55;12.10;99.90
2387;DHT22;49473;50.772;8.768;2022-09-13T00:21:23;12.10;99.90
2387;DHT22;49473;50.772;8.768;2022-09-13T00:23:51;12.20;99.90
2387;DHT22;49473;50.772;8.768;2022-09-13T00:26:22;12.30;99.90
2387;DHT22;49473;50.772;8.768;2022-09-13T00:28:49;12.30;99.90
2387;DHT22;49473;50.772;8.768;2022-09-13T00:31:17;12.20;99.90
2387;DHT22;49473;50.772;8.768;2022-09-13T00:33:45;12.10;99.90
2387;DHT22;49473;50.772;8.768;2022-09-13T00:36:12;12.00;99.90
2387;DHT22;49473;50.772;8.768;2022-09-13T00:38:41;12.00;99.90
2387;DHT22;49473;50.772;8.768;2022-09-13T00:41:10;11.90;99.90
2387;DHT22;49473;50.772;8.768;2022-09-13T00:43:45;12.00;99.90
2387;DHT22;49473;50.772;8.768;2022-09-13T00:46:16;12.00;99.90
2387;DHT22;49473;50.772;8.768;2022-09-13T00:48:46;12.00;99.90
2387;DHT22;49473;50.772;8.768;2022-09-13T00:51:13;12.10;99.90
2387;DHT22;49473;50.772;8.768;2022-09-13T00:53:42;12.10;99.90
2387;DHT22;49473;50.772;8.768;2022-09-13T00:56:14;12.00;99.90
2387;DHT22;49473;50.772;8.768;2022-09-13T00:58:47;12.00;99.90
2387;DHT22;49473;50.772;8.768;2022-09-13T01:01:16;12.00;99.90
2387;DHT22;49473;50.772;8.768;2022-09-13T01:03:45;12.10;99.90
2387;DHT22;49473;50.772;8.768;2022-09-13T01:06:15;12.00;99.90
2387;DHT22;49473;50.772;8.768;2022-09-13T01:08:46;11.90;99.90
2387;DHT22;49473;50.772;8.768;2022-09-13T01:11:18;11.90;99.90
2387;DHT22;49473;50.772;8.768;2022-09-13T01:13:46;11.90;99.90
2387;DHT22;49473;50.772;8.768;2022-09-13T01:16:15;11.90;99.90
2387;DHT22;49473;50.772;8.768;2022-09-13T01:18:42;11.90;99.90
2387;DHT22;49473;50.772;8.768;2022-09-13T01:24:45;11.80;99.90
2387;DHT22;49473;50.772;8.768;2022-09-13T01:27:29;11.80;99.90
2387;DHT22;49473;50.772;8.768;2022-09-13T01:30:20;11.80;99.90
2387;DHT22;49473;50.772;8.768;2022-09-13T01:33:02;11.70;99.90
2387;DHT22;49473;50.772;8.768;2022-09-13T01:35:37;11.70;99.90
2387;DHT22;49473;50.772;8.768;2022-09-13T01:38:17;11.60;99.90
2387;DHT22;49473;50.772;8.768;2022-09-13T01:40:56;11.60;99.90
2387;DHT22;49473;50.772;8.768;2022-09-13T01:43:34;11.60;99.90
2387;DHT22;49473;50.772;8.768;2022-09-13T01:46:08;11.60;99.90
2387;DHT22;49473;50.772;8.768;2022-09-13T01:48:51;11.60;99.90
2387;DHT22;49473;50.772;8.768;2022-09-13T01:51:25;11.60;99.90
2387;DHT22;49473;50.772;8.768;2022-09-13T01:54:02;11.50;99.90
2387;DHT22;49473;50.772;8.768;2022-09-13T01:56:37;11.40;99.90
2387;DHT22;49473;50.772;8.768;2022-09-13T01:59:11;11.40;99.90
2387;DHT22;49473;50.772;8.768;2022-09-13T02:01:44;11.40;99.90
2387;DHT22;49473;50.772;8.768;2022-09-13T02:04:16;11.40;99.90
2387;DHT22;49473;50.772;8.768;2022-09-13T02:06:46;11.50;99.90
2387;DHT22;49473;50.772;8.768;2022-09-13T02:09:18;11.50;99.90
2387;DHT22;49473;50.772;8.768;2022-09-13T02:11:49;11.60;99.90
2387;DHT22;49473;50.772;8.768;2022-09-13T02:14:20;11.60;99.90
2387;DHT22;49473;50.772;8.768;2022-09-13T02:16:55;11.70;99.90
2387;DHT22;49473;50.772;8.768;2022-09-13T02:19:26;11.80;99.90
2387;DHT22;49473;50.772;8.768;2022-09-13T02:21:57;11.80;99.90
2387;DHT22;49473;50.772;8.768;2022-09-13T02:24:29;11.80;99.90
2387;DHT22;49473;50.772;8.768;2022-09-13T02:27:00;11.70;99.90
2387;DHT22;49473;50.772;8.768;2022-09-13T02:29:30;11.70;99.90
2387;DHT22;49473;50.772;8.768;2022-09-13T02:32:03;11.70;99.90
2387;DHT22;49473;50.772;8.768;2022-09-13T02:34:35;11.80;99.90
2387;DHT22;49473;50.772;8.768;2022-09-13T02:37:04;11.80;99.90
2387;DHT22;49473;50.772;8.768;2022-09-13T02:39:35;11.90;99.90
2387;DHT22;49473;50.772;8.768;2022-09-13T02:42:06;11.90;99.90
2387;DHT22;49473;50.772;8.768;2022-09-13T02:44:36;12.00;99.90
2387;DHT22;49473;50.772;8.768;2022-09-13T02:47:18;12.00;99.90
2387;DHT22;49473;50.772;8.768;2022-09-13T02:49:54;12.00;99.90
2387;DHT22;49473;50.772;8.768;2022-09-13T02:52:32;12.00;99.90
2387;DHT22;49473;50.772;8.768;2022-09-13T02:55:08;12.00;99.90
2387;DHT22;49473;50.772;8.768;2022-09-13T03:00:23;11.90;99.90
2387;DHT22;49473;50.772;8.768;2022-09-13T03:02:51;11.90;99.90
2387;DHT22;49473;50.772;8.768;2022-09-13T03:05:19;11.90;99.90
2387;DHT22;49473;50.772;8.768;2022-09-13T03:07:46;11.90;99.90
2387;DHT22;49473;50.772;8.768;2022-09-13T03:10:14;11.90;99.90
2387;DHT22;49473;50.772;8.768;2022-09-13T03:13:02;12.00;99.90
2387;DHT22;49473;50.772;8.768;2022-09-13T03:15:42;11.90;99.90
2387;DHT22;49473;50.772;8.768;2022-09-13T03:18:19;12.00;99.90
2387;DHT22;49473;50.772;8.768;2022-09-13T03:21:00;12.10;99.90
2387;DHT22;49473;50.772;8.768;2022-09-13T03:23:48;12.10;99.90
2387;DHT22;49473;50.772;8.768;2022-09-13T03:26:26;12.20;99.90
2387;DHT22;49473;50.772;8.768;2022-09-13T03:29:09;12.20;99.90
2387;DHT22;49473;50.772;8.768;2022-09-13T03:31:44;12.10;99.90
2387;DHT22;49473;50.772;8.768;2022-09-13T03:34:21;12.20;99.90
2387;DHT22;49473;50.772;8.768;2022-09-13T03:36:54;12.20;99.90
2387;DHT22;49473;50.772;8.768;2022-09-13T03:39:25;12.20;99.90
2387;DHT22;49473;50.772;8.768;2022-09-13T03:41:57;12.30;99.90
2387;DHT22;49473;50.772;8.768;2022-09-13T03:44:28;12.40;99.90
2387;DHT22;49473;50.772;8.768;2022-09-13T03:46:57;12.50;99.90
2387;DHT22;49473;50.772;8.768;2022-09-13T03:49:28;12.50;99.90
2387;DHT22;49473;50.772;8.768;2022-09-13T03:51:56;12.50;99.90
2387;DHT22;49473;50.772;8.768;2022-09-13T03:54:27;12.60;99.90
2387;DHT22;49473;50.772;8.768;2022-09-13T03:57:06;12.70;99.90
2387;DHT22;49473;50.772;8.768;2022-09-13T03:59:34;12.70;99.90
2387;DHT22;49473;50.772;8.768;2022-09-13T04:02:03;12.70;99.90
2387;DHT22;49473;50.772;8.768;2022-09-13T04:04:32;12.80;99.90
2387;DHT22;49473;50.772;8.768;2022-09-13T04:06:59;12.80;99.90
2387;DHT22;49473;50.772;8.768;2022-09-13T04:09:29;12.80;99.90
2387;DHT22;49473;50.772;8.768;2022-09-13T04:11:56;12.80;99.90
2387;DHT22;49473;50.772;8.768;2022-09-13T04:14:22;12.70;99.90
2387;DHT22;49473;50.772;8.768;2022-09-13T04:16:51;12.70;99.90
2387;DHT22;49473;50.772;8.768;2022-09-13T04:19:19;12.70;99.90
2387;DHT22;49473;50.772;8.768;2022-09-13T04:21:48;12.90;99.90
2387;DHT22;49473;50.772;8.768;2022-09-13T04:24:15;12.90;99.90
2387;DHT22;49473;50.772;8.768;2022-09-13T04:26:42;12.90;99.90
2387;DHT22;49473;50.772;8.768;2022-09-13T04:29:09;12.80;99.90
2387;DHT22;49473;50.772;8.768;2022-09-13T04:31:36;12.80;99.90
2387;DHT22;49473;50.772;8.768;2022-09-13T04:34:03;13.00;99.90
2387;DHT22;49473;50.772;8.768;2022-09-13T04:36:31;13.00;99.90
2387;DHT22;49473;50.772;8.768;2022-09-13T04:38:59;13.00;99.90
2387;DHT22;49473;50.772;8.768;2022-09-13T04:41:26;13.00;99.90
2387;DHT22;49473;50.772;8.768;2022-09-13T04:43:53;13.00;99.90
2387;DHT22;49473;50.772;8.768;2022-09-13T04:46:19;13.00;99.90
2387;DHT22;49473;50.772;8.768;2022-09-13T04:48:48;13.00;99.90
2387;DHT22;49473;50.772;8.768;2022-09-13T04:51:15;13.00;99.90
2387;DHT22;49473;50.772;8.768;2022-09-13T04:53:42;13.00;99.90
2387;DHT22;49473;50.772;8.768;2022-09-13T04:56:17;13.10;99.90
2387;DHT22;49473;50.772;8.768;2022-09-13T04:58:44;13.20;99.90
2387;DHT22;49473;50.772;8.768;2022-09-13T05:01:11;13.20;99.90
2387;DHT22;49473;50.772;8.768;2022-09-13T05:03:38;13.20;99.90
2387;DHT22;49473;50.772;8.768;2022-09-13T05:06:06;13.20;99.90
2387;DHT22;49473;50.772;8.768;2022-09-13T05:08:33;13.20;99.90
2387;DHT22;49473;50.772;8.768;2022-09-13T05:11:01;13.20;99.90
2387;DHT22;49473;50.772;8.768;2022-09-13T05:13:29;13.30;99.90
2387;DHT22;49473;50.772;8.768;2022-09-13T05:15:57;13.40;99.90
2387;DHT22;49473;50.772;8.768;2022-09-13T05:18:25;13.40;99.90
2387;DHT22;49473;50.772;8.768;2022-09-13T05:20:53;13.40;99.90
2387;DHT22;49473;50.772;8.768;2022-09-13T05:23:20;13.50;99.90
2387;DHT22;49473;50.772;8.768;2022-09-13T05:25:52;13.50;99.90
2387;DHT22;49473;50.772;8.768;2022-09-13T05:28:19;13.60;99.90
2387;DHT22;49473;50.772;8.768;2022-09-13T05:30:55;13.60;99.90
2387;DHT22;49473;50.772;8.768;2022-09-13T05:33:22;13.70;99.90
2387;DHT22;49473;50.772;8.768;2022-09-13T05:35:49;13.60;99.90
2387;DHT22;49473;50.772;8.768;2022-09-13T05:38:16;13.60;99.90
2387;DHT22;49473;50.772;8.768;2022-09-13T05:40:43;13.50;99.90
2387;DHT22;49473;50.772;8.768;2022-09-13T05:43:10;13.60;99.90
2387;DHT22;49473;50.772;8.768;2022-09-13T05:45:37;13.60;99.90
2387;DHT22;49473;50.772;8.768;2022-09-13T05:48:05;13.70;99.90
2387;DHT22;49473;50.772;8.768;2022-09-13T05:50:36;13.70;99.90
2387;DHT22;49473;50.772;8.768;2022-09-13T05:53:03;13.80;99.90
2387;DHT22;49473;50.772;8.768;2022-09-13T05:55:30;13.70;99.90
2387;DHT22;49473;50.772;8.768;2022-09-13T05:57:57;13.70;99.90
2387;DHT22;49473;50.772;8.768;2022-09-13T06:00:24;13.70;99.90
2387;DHT22;49473;50.772;8.768;2022-09-13T06:02:51;13.80;99.90
2387;DHT22;49473;50.772;8.768;2022-09-13T06:05:19;13.80;99.90
2387;DHT22;49473;50.772;8.768;2022-09-13T06:07:46;13.90;99.90
2387;DHT22;49473;50.772;8.768;2022-09-13T06:10:13;14.00;99.90
2387;DHT22;49473;50.772;8.768;2022-09-13T06:12:40;14.10;99.90
2387;DHT22;49473;50.772;8.768;2022-09-13T06:15:08;14.10;99.90
2387;DHT22;49473;50.772;8.768;2022-09-13T06:17:36;14.20;99.90
2387;DHT22;49473;50.772;8.768;2022-09-13T06:20:03;14.20;99.90
2387;DHT22;49473;50.772;8.768;2022-09-13T06:22:31;14.20;99.90
2387;DHT22;49473;50.772;8.768;2022-09-13T06:24:59;14.20;99.90
2387;DHT22;49473;50.772;8.768;2022-09-13T06:27:28;14.20;99.90
2387;DHT22;49473;50.772;8.768;2022-09-13T06:29:55;14.20;99.90
2387;DHT22;49473;50.772;8.768;2022-09-13T06:32:21;14.20;99.90
2387;DHT22;49473;50.772;8.768;2022-09-13T06:34:48;14.20;99.90
2387;DHT22;49473;50.772;8.768;2022-09-13T06:37:15;14.20;99.90
2387;DHT22;49473;50.772;8.768;2022-09-13T06:39:43;14.20;99.90
2387;DHT22;49473;50.772;8.768;2022-09-13T06:42:10;14.20;99.90
2387;DHT22;49473;50.772;8.768;2022-09-13T06:44:36;14.30;99.90
2387;DHT22;49473;50.772;8.768;2022-09-13T06:47:04;14.40;99.90
2387;DHT22;49473;50.772;8.768;2022-09-13T06:49:30;14.40;99.90
2387;DHT22;49473;50.772;8.768;2022-09-13T06:51:57;14.50;99.90
2387;DHT22;49473;50.772;8.768;2022-09-13T06:54:24;14.60;99.90
2387;DHT22;49473;50.772;8.768;2022-09-13T06:56:52;14.60;99.90
2387;DHT22;49473;50.772;8.768;2022-09-13T06:59:19;14.60;99.90
2387;DHT22;49473;50.772;8.768;2022-09-13T07:01:46;14.70;99.90
2387;DHT22;49473;50.772;8.768;2022-09-13T07:04:14;14.70;99.90
2387;DHT22;49473;50.772;8.768;2022-09-13T07:06:43;14.70;99.90
2387;DHT22;49473;50.772;8.768;2022-09-13T07:09:13;14.70;99.90
2387;DHT22;49473;50.772;8.768;2022-09-13T07:11:41;14.60;99.90
2387;DHT22;49473;50.772;8.768;2022-09-13T07:14:12;14.60;99.90
2387;DHT22;49473;50.772;8.768;2022-09-13T07:16:39;14.70;99.90
2387;DHT22;49473;50.772;8.768;2022-09-13T07:19:07;14.70;99.90
2387;DHT22;49473;50.772;8.768;2022-09-13T07:21:37;14.90;99.90
2387;DHT22;49473;50.772;8.768;2022-09-13T07:24:04;15.10;99.90
2387;DHT22;49473;50.772;8.768;2022-09-13T07:26:31;15.30;99.90
2387;DHT22;49473;50.772;8.768;2022-09-13T07:29:00;15.40;99.90
2387;DHT22;49473;50.772;8.768;2022-09-13T07:31:30;15.50;99.90
2387;DHT22;49473;50.772;8.768;2022-09-13T07:33:59;15.60;99.90
2387;DHT22;49473;50.772;8.768;2022-09-13T07:36:27;15.70;99.90
2387;DHT22;49473;50.772;8.768;2022-09-13T07:38:55;15.70;99.90
2387;DHT22;49473;50.772;8.768;2022-09-13T07:41:23;15.80;99.90
2387;DHT22;49473;50.772;8.768;2022-09-13T07:43:50;15.90;99.90
2387;DHT22;49473;50.772;8.768;2022-09-13T07:46:18;15.90;99.90
2387;DHT22;49473;50.772;8.768;2022-09-13T07:48:47;15.80;99.90
2387;DHT22;49473;50.772;8.768;2022-09-13T07:51:15;15.80;99.90
2387;DHT22;49473;50.772;8.768;2022-09-13T07:53:44;16.00;99.90
2387;DHT22;49473;50.772;8.768;2022-09-13T07:56:12;16.10;99.90
2387;DHT22;49473;50.772;8.768;2022-09-13T07:58:41;16.30;99.90
2387;DHT22;49473;50.772;8.768;2022-09-13T08:01:11;16.30;99.90
2387;DHT22;49473;50.772;8.768;2022-09-13T08:03:38;16.30;99.90
2387;DHT22;49473;50.772;8.768;2022-09-13T08:06:07;16.30;99.90
2387;DHT22;49473;50.772;8.768;2022-09-13T08:08:35;16.40;99.90
2387;DHT22;49473;50.772;8.768;2022-09-13T08:11:05;16.60;99.90
2387;DHT22;49473;50.772;8.768;2022-09-13T08:13:32;16.80;99.90
2387;DHT22;49473;50.772;8.768;2022-09-13T08:16:00;17.00;99.90
2387;DHT22;49473;50.772;8.768;2022-09-13T08:18:28;17.00;99.90
2387;DHT22;49473;50.772;8.768;2022-09-13T08:20:55;17.40;99.90
2387;DHT22;49473;50.772;8.768;2022-09-13T08:23:24;17.80;99.90
2387;DHT22;49473;50.772;8.768;2022-09-13T08:25:52;18.30;99.90
2387;DHT22;49473;50.772;8.768;2022-09-13T08:28:20;18.80;99.90
2387;DHT22;49473;50.772;8.768;2022-09-13T08:30:47;19.00;99.90
2387;DHT22;49473;50.772;8.768;2022-09-13T08:33:14;19.30;99.90
2387;DHT22;49473;50.772;8.768;2022-09-13T08:35:49;19.30;99.90
2387;DHT22;49473;50.772;8.768;2022-09-13T08:38:16;19.40;99.90
2387;DHT22;49473;50.772;8.768;2022-09-13T08:40:50;19.60;99.90
2387;DHT22;49473;50.772;8.768;2022-09-13T08:43:25;19.70;99.90
2387;DHT22;49473;50.772;8.768;2022-09-13T08:46:00;20.00;99.90
2387;DHT22;49473;50.772;8.768;2022-09-13T08:48:32;20.60;99.90
2387;DHT22;49473;50.772;8.768;2022-09-13T08:51:03;21.30;99.90
2387;DHT22;49473;50.772;8.768;2022-09-13T08:53:44;22.00;99.90
2387;DHT22;49473;50.772;8.768;2022-09-13T08:56:18;22.30;99.90
2387;DHT22;49473;50.772;8.768;2022-09-13T08:59:03;22.40;99.90
2387;DHT22;49473;50.772;8.768;2022-09-13T09:01:42;22.40;99.90
2387;DHT22;49473;50.772;8.768;2022-09-13T09:04:18;22.50;99.90
2387;DHT22;49473;50.772;8.768;2022-09-13T09:07:00;22.70;99.90
2387;DHT22;49473;50.772;8.768;2022-09-13T09:09:31;23.10;99.90
2387;DHT22;49473;50.772;8.768;2022-09-13T09:12:09;23.60;99.90
2387;DHT22;49473;50.772;8.768;2022-09-13T09:14:41;24.20;99.90
2387;DHT22;49473;50.772;8.768;2022-09-13T09:17:15;24.60;99.90
2387;DHT22;49473;50.772;8.768;2022-09-13T09:19:44;24.50;99.90
2387;DHT22;49473;50.772;8.768;2022-09-13T09:22:16;24.30;99.90
2387;DHT22;49473;50.772;8.768;2022-09-13T09:24:45;23.80;99.90
2387;DHT22;49473;50.772;8.768;2022-09-13T09:27:16;23.40;99.90
2387;DHT22;49473;50.772;8.768;2022-09-13T09:29:44;23.50;99.90
2387;DHT22;49473;50.772;8.768;2022-09-13T09:32:25;23.70;99.90
2387;DHT22;49473;50.772;8.768;2022-09-13T09:35:06;24.10;99.90
2387;DHT22;49473;50.772;8.768;2022-09-13T09:37:37;24.60;99.90
2387;DHT22;49473;50.772;8.768;2022-09-13T09:40:08;24.60;99.90
2387;DHT22;49473;50.772;8.768;2022-09-13T09:42:41;24.90;99.90
2387;DHT22;49473;50.772;8.768;2022-09-13T09:45:23;24.90;99.90
2387;DHT22;49473;50.772;8.768;2022-09-13T09:47:51;24.60;99.90
2387;DHT22;49473;50.772;8.768;2022-09-13T09:50:20;24.90;99.90
2387;DHT22;49473;50.772;8.768;2022-09-13T09:52:52;25.60;99.90
2387;DHT22;49473;50.772;8.768;2022-09-13T09:55:26;25.90;99.90
2387;DHT22;49473;50.772;8.768;2022-09-13T09:57:57;26.30;99.90
2387;DHT22;49473;50.772;8.768;2022-09-13T10:00:26;26.50;99.90
2387;DHT22;49473;50.772;8.768;2022-09-13T10:02:57;26.80;99.90
2387;DHT22;49473;50.772;8.768;2022-09-13T10:05:26;26.40;99.90
2387;DHT22;49473;50.772;8.768;2022-09-13T10:07:57;26.50;99.90
2387;DHT22;49473;50.772;8.768;2022-09-13T10:10:36;27.20;99.90
2387;DHT22;49473;50.772;8.768;2022-09-13T10:13:13;27.90;99.90
2387;DHT22;49473;50.772;8.768;2022-09-13T10:15:52;28.30;99.90
2387;DHT22;49473;50.772;8.768;2022-09-13T10:18:20;28.30;99.90
2387;DHT22;49473;50.772;8.768;2022-09-13T10:20:59;29.10;99.90
2387;DHT22;49473;50.772;8.768;2022-09-13T10:23:27;29.70;99.90
2387;DHT22;49473;50.772;8.768;2022-09-13T10:26:00;29.90;99.90
2387;DHT22;49473;50.772;8.768;2022-09-13T10:28:30;31.10;99.90
2387;DHT22;49473;50.772;8.768;2022-09-13T10:31:01;31.50;99.90
2387;DHT22;49473;50.772;8.768;2022-09-13T10:33:32;31.40;99.90
2387;DHT22;49473;50.772;8.768;2022-09-13T10:36:02;32.10;99.90
2387;DHT22;49473;50.772;8.768;2022-09-13T10:38:31;32.20;97.10
2387;DHT22;49473;50.772;8.768;2022-09-13T10:41:01;32.50;97.90
2387;DHT22;49473;50.772;8.768;2022-09-13T10:43:31;33.30;96.70
2387;DHT22;49473;50.772;8.768;2022-09-13T10:45:59;34.00;93.50
2387;DHT22;49473;50.772;8.768;2022-09-13T10:48:28;34.50;92.30
2387;DHT22;49473;50.772;8.768;2022-09-13T10:51:04;35.20;91.40
2387;DHT22;49473;50.772;8.768;2022-09-13T10:53:37;35.90;89.70
2387;DHT22;49473;50.772;8.768;2022-09-13T10:56:05;36.80;87.90
2387;DHT22;49473;50.772;8.768;2022-09-13T10:58:33;36.10;81.80
2387;DHT22;49473;50.772;8.768;2022-09-13T11:01:12;36.40;80.00
2387;DHT22;49473;50.772;8.768;2022-09-13T11:06:41;36.50;79.90
2387;DHT22;49473;50.772;8.768;2022-09-13T11:09:11;37.60;75.50
2387;DHT22;49473;50.772;8.768;2022-09-13T11:11:44;38.30;70.90
2387;DHT22;49473;50.772;8.768;2022-09-13T11:14:30;38.50;70.80
2387;DHT22;49473;50.772;8.768;2022-09-13T11:17:05;39.40;66.50
2387;DHT22;49473;50.772;8.768;2022-09-13T11:19:59;39.60;67.00
2387;DHT22;49473;50.772;8.768;2022-09-13T11:22:44;39.80;64.70
2387;DHT22;49473;50.772;8.768;2022-09-13T11:28:28;39.50;62.50
2387;DHT22;49473;50.772;8.768;2022-09-13T11:31:11;39.20;59.60
2387;DHT22;49473;50.772;8.768;2022-09-13T11:33:50;39.30;61.80
2387;DHT22;49473;50.772;8.768;2022-09-13T11:36:42;38.80;59.70
2387;DHT22;49473;50.772;8.768;2022-09-13T11:39:18;39.30;60.60
2387;DHT22;49473;50.772;8.768;2022-09-13T11:41:57;40.50;58.00
2387;DHT22;49473;50.772;8.768;2022-09-13T11:45:08;40.90;57.00
2387;DHT22;49473;50.772;8.768;2022-09-13T11:48:02;41.30;57.20
2387;DHT22;49473;50.772;8.768;2022-09-13T11:50:35;41.90;55.80
2387;DHT22;49473;50.772;8.768;2022-09-13T11:53:21;41.50;56.40
2387;DHT22;49473;50.772;8.768;2022-09-13T11:55:54;41.10;55.90
2387;DHT22;49473;50.772;8.768;2022-09-13T11:58:27;40.00;55.80
2387;DHT22;49473;50.772;8.768;2022-09-13T12:00:58;39.50;56.40
2387;DHT22;49473;50.772;8.768;2022-09-13T12:03:32;39.50;57.10
2387;DHT22;49473;50.772;8.768;2022-09-13T12:06:02;39.80;57.40
2387;DHT22;49473;50.772;8.768;2022-09-13T12:08:32;39.30;56.50
2387;DHT22;49473;50.772;8.768;2022-09-13T12:11:03;38.80;58.10
2387;DHT22;49473;50.772;8.768;2022-09-13T12:13:35;38.10;57.20
2387;DHT22;49473;50.772;8.768;2022-09-13T12:16:19;38.30;58.90
2387;DHT22;49473;50.772;8.768;2022-09-13T12:18:50;37.50;57.10
2387;DHT22;49473;50.772;8.768;2022-09-13T12:21:20;37.30;59.10
2387;DHT22;49473;50.772;8.768;2022-09-13T12:23:50;37.60;59.10
2387;DHT22;49473;50.772;8.768;2022-09-13T12:26:23;37.80;58.40
2387;DHT22;49473;50.772;8.768;2022-09-13T12:28:54;37.30;58.40
2387;DHT22;49473;50.772;8.768;2022-09-13T12:31:25;36.80;58.50
2387;DHT22;49473;50.772;8.768;2022-09-13T12:33:53;36.00;59.20
2387;DHT22;49473;50.772;8.768;2022-09-13T12:36:55;34.90;61.60
2387;DHT22;49473;50.772;8.768;2022-09-13T12:39:51;35.60;61.90
2387;DHT22;49473;50.772;8.768;2022-09-13T12:42:39;36.00;59.10
2387;DHT22;49473;50.772;8.768;2022-09-13T12:51:04;37.60;60.10
2387;DHT22;49473;50.772;8.768;2022-09-13T12:53:59;38.50;58.20
2387;DHT22;49473;50.772;8.768;2022-09-13T12:56:40;39.30;56.80
2387;DHT22;49473;50.772;8.768;2022-09-13T12:59:20;38.40;57.10
2387;DHT22;49473;50.772;8.768;2022-09-13T13:01:49;37.50;56.90
2387;DHT22;49473;50.772;8.768;2022-09-13T13:04:18;37.20;58.10
2387;DHT22;49473;50.772;8.768;2022-09-13T13:06:51;37.50;59.50
2387;DHT22;49473;50.772;8.768;2022-09-13T13:09:23;38.20;59.60
2387;DHT22;49473;50.772;8.768;2022-09-13T13:11:52;37.60;57.30
2387;DHT22;49473;50.772;8.768;2022-09-13T13:14:46;37.20;59.40
2387;DHT22;49473;50.772;8.768;2022-09-13T13:17:36;37.80;60.10
2387;DHT22;49473;50.772;8.768;2022-09-13T13:23:14;36.70;59.90
2387;DHT22;49473;50.772;8.768;2022-09-13T13:25:56;36.30;59.30
2387;DHT22;49473;50.772;8.768;2022-09-13T13:28:48;35.40;60.30
2387;DHT22;49473;50.772;8.768;2022-09-13T13:31:38;35.00;60.90
2387;DHT22;49473;50.772;8.768;2022-09-13T13:34:27;35.50;61.60
2387;DHT22;49473;50.772;8.768;2022-09-13T13:37:01;34.90;64.10
2387;DHT22;49473;50.772;8.768;2022-09-13T13:39:40;33.70;65.00
2387;DHT22;49473;50.772;8.768;2022-09-13T13:42:21;31.90;68.70
2387;DHT22;49473;50.772;8.768;2022-09-13T13:45:15;30.80;72.10
2387;DHT22;49473;50.772;8.768;2022-09-13T13:51:13;28.20;80.80
2387;DHT22;49473;50.772;8.768;2022-09-13T13:53:43;27.50;84.30
2387;DHT22;49473;50.772;8.768;2022-09-13T13:56:45;26.90;88.70
2387;DHT22;49473;50.772;8.768;2022-09-13T13:59:18;26.20;91.60
2387;DHT22;49473;50.772;8.768;2022-09-13T14:01:51;26.10;93.20
2387;DHT22;49473;50.772;8.768;2022-09-13T14:04:45;26.00;93.40
2387;DHT22;49473;50.772;8.768;2022-09-13T14:07:28;26.20;94.40
2387;DHT22;49473;50.772;8.768;2022-09-13T14:10:01;26.20;95.00
2387;DHT22;49473;50.772;8.768;2022-09-13T14:12:41;26.20;95.20
2387;DHT22;49473;50.772;8.768;2022-09-13T14:15:22;26.10;95.90
2387;DHT22;49473;50.772;8.768;2022-09-13T14:18:16;26.20;96.50
2387;DHT22;49473;50.772;8.768;2022-09-13T14:21:00;26.10;96.60
2387;DHT22;49473;50.772;8.768;2022-09-13T14:23:27;26.10;96.30
2387;DHT22;49473;50.772;8.768;2022-09-13T14:25:56;26.10;97.40
2387;DHT22;49473;50.772;8.768;2022-09-13T14:28:25;26.20;96.50
2387;DHT22;49473;50.772;8.768;2022-09-13T14:30:54;26.30;97.40
2387;DHT22;49473;50.772;8.768;2022-09-13T14:33:24;26.40;97.20
2387;DHT22;49473;50.772;8.768;2022-09-13T14:36:04;26.40;97.50
2387;DHT22;49473;50.772;8.768;2022-09-13T14:38:33;26.40;96.80
2387;DHT22;49473;50.772;8.768;2022-09-13T14:41:10;26.30;97.00
2387;DHT22;49473;50.772;8.768;2022-09-13T14:43:40;26.10;98.50
2387;DHT22;49473;50.772;8.768;2022-09-13T14:46:11;25.90;97.80
2387;DHT22;49473;50.772;8.768;2022-09-13T14:48:45;25.80;98.70
2387;DHT22;49473;50.772;8.768;2022-09-13T14:51:19;26.20;99.50
2387;DHT22;49473;50.772;8.768;2022-09-13T14:53:48;26.90;98.20
2387;DHT22;49473;50.772;8.768;2022-09-13T14:56:19;27.70;97.60
2387;DHT22;49473;50.772;8.768;2022-09-13T14:58:51;27.90;96.60
2387;DHT22;49473;50.772;8.768;2022-09-13T15:01:20;27.90;96.60
2387;DHT22;49473;50.772;8.768;2022-09-13T15:03:48;28.00;96.90
2387;DHT22;49473;50.772;8.768;2022-09-13T15:06:22;28.30;97.10
2387;DHT22;49473;50.772;8.768;2022-09-13T15:08:50;28.50;95.60
2387;DHT22;49473;50.772;8.768;2022-09-13T15:11:28;28.50;94.80
2387;DHT22;49473;50.772;8.768;2022-09-13T15:14:20;28.30;95.60
2387;DHT22;49473;50.772;8.768;2022-09-13T15:16:49;27.90;95.40
2387;DHT22;49473;50.772;8.768;2022-09-13T15:19:34;27.70;96.20
2387;DHT22;49473;50.772;8.768;2022-09-13T15:22:18;27.20;96.10
2387;DHT22;49473;50.772;8.768;2022-09-13T15:24:47;26.80;97.10
2387;DHT22;49473;50.772;8.768;2022-09-13T15:27:21;26.60;98.40
2387;DHT22;49473;50.772;8.768;2022-09-13T15:29:52;26.40;98.50
2387;DHT22;49473;50.772;8.768;2022-09-13T15:32:21;26.20;99.50
2387;DHT22;49473;50.772;8.768;2022-09-13T15:34:48;26.10;99.90
2387;DHT22;49473;50.772;8.768;2022-09-13T15:37:16;25.90;99.90
2387;DHT22;49473;50.772;8.768;2022-09-13T15:39:47;25.70;99.90
2387;DHT22;49473;50.772;8.768;2022-09-13T15:42:14;25.60;99.90
2387;DHT22;49473;50.772;8.768;2022-09-13T15:44:41;25.60;99.90
2387;DHT22;49473;50.772;8.768;2022-09-13T15:47:14;25.50;99.90
2387;DHT22;49473;50.772;8.768;2022-09-13T15:49:46;25.50;99.90
2387;DHT22;49473;50.772;8.768;2022-09-13T15:52:14;25.40;99.90
2387;DHT22;49473;50.772;8.768;2022-09-13T15:54:42;25.40;99.90
2387;DHT22;49473;50.772;8.768;2022-09-13T15:57:16;25.20;99.90
2387;DHT22;49473;50.772;8.768;2022-09-13T15:59:43;25.20;99.90
2387;DHT22;49473;50.772;8.768;2022-09-13T16:02:17;25.20;99.90
2387;DHT22;49473;50.772;8.768;2022-09-13T16:04:45;25.10;99.90
2387;DHT22;49473;50.772;8.768;2022-09-13T16:07:12;25.10;99.90
2387;DHT22;49473;50.772;8.768;2022-09-13T16:09:38;25.00;99.90
2387;DHT22;49473;50.772;8.768;2022-09-13T16:12:05;24.90;99.90
2387;DHT22;49473;50.772;8.768;2022-09-13T16:14:32;24.80;99.90
2387;DHT22;49473;50.772;8.768;2022-09-13T16:17:02;24.60;99.90
2387;DHT22;49473;50.772;8.768;2022-09-13T16:19:31;24.50;99.90
2387;DHT22;49473;50.772;8.768;2022-09-13T16:21:57;24.40;99.90
2387;DHT22;49473;50.772;8.768;2022-09-13T16:24:24;24.40;99.90
2387;DHT22;49473;50.772;8.768;2022-09-13T16:26:52;24.20;99.90
2387;DHT22;49473;50.772;8.768;2022-09-13T16:29:18;24.00;99.90
2387;DHT22;49473;50.772;8.768;2022-09-13T16:31:45;24.00;99.90
2387;DHT22;49473;50.772;8.768;2022-09-13T16:34:12;23.90;99.90
2387;DHT22;49473;50.772;8.768;2022-09-13T16:36:40;23.70;99.90
2387;DHT22;49473;50.772;8.768;2022-09-13T16:39:07;23.80;99.90
2387;DHT22;49473;50.772;8.768;2022-09-13T16:41:33;23.80;99.90